Time;durP1;ratioP1;P1;durP2;ratioP2;P2;SDS_P1;SDS_P2;PMS_P1;PMS_P2;Temp;Humidity;BMP_temperature;BMP_pressure;BME280_temperature;BME280_humidity;BME280_pressure;Samples;Min_cycle;Max_cycle;Signal;HPM_P1;HPM_P2
2022/01/10 00:00:38;;;;;;;26.50;12.93;;;4.90;99.90;;;;;;4998579;28;20231;-75
2022/01/10 00:03:07;;;;;;;24.97;13.70;;;4.80;99.90;;;;;;4978446;28;20546;-74
2022/01/10 00:05:34;;;;;;;22.00;12.43;;;4.90;99.90;;;;;;4987960;28;20212;-74
2022/01/10 00:08:04;;;;;;;20.87;13.73;;;5.00;99.90;;;;;;4989887;28;20684;-74
2022/01/10 00:10:32;;;;;;;22.73;12.73;;;4.90;99.90;;;;;;4993913;28;20216;-74
2022/01/10 00:13:00;;;;;;;19.80;12.47;;;4.80;99.90;;;;;;4974998;28;20210;-75
2022/01/10 00:15:27;;;;;;;18.20;12.97;;;4.90;99.90;;;;;;4979717;28;20197;-75
2022/01/10 00:17:54;;;;;;;19.63;11.93;;;4.90;99.90;;;;;;4972620;28;20663;-74
2022/01/10 00:20:39;;;;;;;25.20;13.13;;;4.80;99.90;;;;;;4976247;28;20223;-75
2022/01/10 00:23:09;;;;;;;22.53;12.57;;;4.80;99.90;;;;;;4975464;28;20706;-75
2022/01/10 00:25:36;;;;;;;17.93;12.13;;;4.70;99.90;;;;;;4959030;28;20217;-75
2022/01/10 00:28:04;;;;;;;23.43;12.30;;;4.80;99.90;;;;;;4960444;28;20677;-75
2022/01/10 00:30:31;;;;;;;17.90;11.57;;;4.80;99.90;;;;;;4969844;28;20221;-75
2022/01/10 00:32:58;;;;;;;15.77;11.73;;;4.80;99.90;;;;;;4977365;28;20198;-75
2022/01/10 00:35:26;;;;;;;23.47;13.33;;;4.90;99.90;;;;;;4978093;28;20193;-75
2022/01/10 00:37:53;;;;;;;17.30;12.67;;;4.80;99.90;;;;;;4982674;28;20204;-75
2022/01/10 00:40:22;;;;;;;21.00;13.47;;;4.70;99.90;;;;;;4964275;28;20560;-74
2022/01/10 00:42:55;;;;;;;20.43;12.33;;;4.80;99.90;;;;;;4966592;28;20222;-75
2022/01/10 00:45:26;;;;;;;21.13;12.60;;;4.90;99.90;;;;;;4974143;28;20219;-74
2022/01/10 00:47:54;;;;;;;21.80;13.20;;;4.90;99.90;;;;;;4976551;28;20207;-75
2022/01/10 00:50:24;;;;;;;19.47;13.20;;;4.80;99.90;;;;;;4977209;28;20233;-74
2022/01/10 00:52:52;;;;;;;20.40;13.10;;;4.90;99.90;;;;;;4973383;28;20213;-74
2022/01/10 00:55:20;;;;;;;22.07;14.17;;;4.90;99.90;;;;;;4973862;28;20203;-74
2022/01/10 00:57:48;;;;;;;22.33;13.47;;;4.80;99.90;;;;;;4967707;28;20204;-75
2022/01/10 01:00:17;;;;;;;27.47;14.17;;;4.80;99.90;;;;;;4982081;28;20225;-75
2022/01/10 01:02:45;;;;;;;25.60;14.77;;;4.70;99.90;;;;;;4969364;28;20226;-75
2022/01/10 01:05:17;;;;;;;19.13;13.20;;;4.70;99.90;;;;;;4986884;28;20308;-75
2022/01/10 01:07:45;;;;;;;23.77;14.63;;;4.80;99.90;;;;;;4983275;28;20540;-74
2022/01/10 01:10:44;;;;;;;27.07;15.40;;;4.70;99.90;;;;;;4981322;28;20236;-74
2022/01/10 01:13:24;;;;;;;23.17;14.57;;;4.70;99.90;;;;;;4969838;28;20204;-74
2022/01/10 01:16:09;;;;;;;26.30;15.27;;;4.70;99.90;;;;;;4976798;28;20205;-74
2022/01/10 01:24:31;;;;;;;26.00;16.13;;;4.50;99.90;;;;;;4978698;28;20189;-75
2022/01/10 01:26:59;;;;;;;32.57;17.40;;;4.50;99.90;;;;;;4988857;28;20213;-75
2022/01/10 01:29:29;;;;;;;28.10;16.37;;;4.60;99.90;;;;;;4984877;28;20220;-74
2022/01/10 01:31:59;;;;;;;31.20;17.37;;;4.50;99.90;;;;;;4977104;28;20207;-75
2022/01/10 01:34:27;;;;;;;28.27;16.17;;;4.50;99.90;;;;;;4987298;28;20209;-74
2022/01/10 01:36:56;;;;;;;26.37;17.00;;;4.40;99.90;;;;;;4987317;28;20207;-74
2022/01/10 01:39:28;;;;;;;28.67;17.83;;;4.40;99.90;;;;;;4976903;28;20217;-75
2022/01/10 01:42:04;;;;;;;29.37;17.10;;;4.30;99.90;;;;;;4992166;28;20206;-75
2022/01/10 01:45:07;;;;;;;27.20;17.00;;;4.40;99.90;;;;;;4976491;28;20208;-75
2022/01/10 01:47:34;;;;;;;27.43;16.27;;;4.40;99.90;;;;;;4965699;28;20223;-75
2022/01/10 01:50:05;;;;;;;26.40;16.23;;;4.40;99.90;;;;;;4987624;28;20231;-74
2022/01/10 01:52:33;;;;;;;31.20;16.37;;;4.30;99.90;;;;;;4965149;28;20204;-75
2022/01/10 01:55:00;;;;;;;25.67;16.70;;;4.40;99.90;;;;;;4961989;28;20207;-75
2022/01/10 01:57:28;;;;;;;25.60;15.87;;;4.40;99.90;;;;;;4964838;28;20212;-75
2022/01/10 01:59:56;;;;;;;24.90;14.67;;;4.50;99.90;;;;;;4981441;28;20219;-75
2022/01/10 02:02:25;;;;;;;23.33;15.47;;;4.60;99.90;;;;;;4976698;28;20214;-75
2022/01/10 02:04:52;;;;;;;22.90;13.27;;;4.60;99.90;;;;;;4962000;28;20212;-74
2022/01/10 02:07:20;;;;;;;24.13;14.50;;;4.50;99.90;;;;;;4984588;28;20193;-76
2022/01/10 02:09:47;;;;;;;24.10;14.63;;;4.30;99.90;;;;;;4975859;28;20220;-74
2022/01/10 02:12:15;;;;;;;30.83;16.17;;;4.20;99.90;;;;;;4980934;28;20209;-74
2022/01/10 02:14:44;;;;;;;25.63;16.40;;;4.20;99.90;;;;;;4976209;28;20208;-75
2022/01/10 02:17:18;;;;;;;25.37;16.53;;;4.20;99.90;;;;;;4971705;28;20203;-75
2022/01/10 02:19:58;;;;;;;25.97;15.77;;;4.10;99.90;;;;;;4956512;28;20221;-75
2022/01/10 02:22:28;;;;;;;33.37;16.60;;;4.00;99.90;;;;;;4974875;28;20531;-75
2022/01/10 02:25:31;;;;;;;26.37;16.40;;;4.00;99.90;;;;;;4973823;28;20588;-74
2022/01/10 02:27:59;;;;;;;27.13;16.30;;;4.00;99.90;;;;;;4974826;28;20211;-74
2022/01/10 02:30:27;;;;;;;27.90;15.83;;;4.10;99.90;;;;;;4974921;28;20219;-75
2022/01/10 02:32:57;;;;;;;27.33;16.13;;;4.20;99.90;;;;;;4975529;28;20588;-74
2022/01/10 02:35:27;;;;;;;23.30;15.10;;;4.00;99.90;;;;;;4974886;28;20206;-74
2022/01/10 02:37:56;;;;;;;25.70;15.57;;;4.00;99.90;;;;;;4972385;28;20212;-75
2022/01/10 02:40:25;;;;;;;28.07;15.73;;;3.90;99.90;;;;;;4972005;28;20224;-74
2022/01/10 02:42:53;;;;;;;26.80;15.83;;;4.00;99.90;;;;;;4975401;28;20281;-75
2022/01/10 02:45:21;;;;;;;26.10;15.70;;;3.90;99.90;;;;;;4973665;28;20226;-75
2022/01/10 02:47:49;;;;;;;25.27;15.10;;;3.90;99.90;;;;;;4975377;28;20207;-74
2022/01/10 02:50:19;;;;;;;24.50;15.40;;;3.90;99.90;;;;;;4972661;28;20614;-75
2022/01/10 02:52:49;;;;;;;24.07;15.03;;;3.90;99.90;;;;;;4978555;28;20208;-75
2022/01/10 02:55:18;;;;;;;26.23;15.93;;;3.90;99.90;;;;;;4974863;28;20205;-76
2022/01/10 02:57:45;;;;;;;28.53;15.77;;;4.00;99.90;;;;;;4975121;28;20209;-74
2022/01/10 03:00:16;;;;;;;24.93;15.30;;;3.90;99.90;;;;;;4969999;28;20223;-74
2022/01/10 03:02:48;;;;;;;29.80;15.53;;;3.70;99.90;;;;;;4967126;28;20203;-75
2022/01/10 03:05:16;;;;;;;24.67;15.00;;;3.80;99.90;;;;;;4972084;28;20204;-74
2022/01/10 03:07:44;;;;;;;25.70;15.37;;;3.90;99.90;;;;;;4981554;28;20220;-75
2022/01/10 03:10:13;;;;;;;24.07;15.93;;;3.90;99.90;;;;;;4967069;28;20223;-75
2022/01/10 03:12:41;;;;;;;29.37;15.47;;;4.00;99.90;;;;;;4969782;28;20219;-75
2022/01/10 03:15:10;;;;;;;28.23;16.67;;;4.00;99.90;;;;;;4979917;28;20198;-75
2022/01/10 03:17:38;;;;;;;27.20;15.70;;;3.80;99.90;;;;;;4969620;28;20207;-75
2022/01/10 03:20:08;;;;;;;25.93;15.53;;;3.70;99.90;;;;;;4970377;28;20224;-75
2022/01/10 03:22:36;;;;;;;28.43;15.97;;;3.60;99.90;;;;;;4991503;28;20207;-74
2022/01/10 03:25:05;;;;;;;28.60;17.17;;;3.70;99.90;;;;;;4971670;28;20234;-75
2022/01/10 03:27:36;;;;;;;26.33;16.17;;;3.80;99.90;;;;;;4996256;28;20218;-74
2022/01/10 03:30:05;;;;;;;30.20;18.13;;;3.70;99.90;;;;;;4972940;28;20219;-76
2022/01/10 03:32:33;;;;;;;33.27;17.40;;;3.70;99.90;;;;;;4986522;28;20205;-75
2022/01/10 03:35:09;;;;;;;25.47;16.37;;;3.70;99.90;;;;;;4984445;28;20212;-75
2022/01/10 03:37:37;;;;;;;31.60;16.27;;;3.60;99.90;;;;;;4974241;28;20201;-75
2022/01/10 03:40:06;;;;;;;25.97;17.33;;;3.60;99.90;;;;;;4995761;28;20220;-74
2022/01/10 03:42:33;;;;;;;29.20;17.07;;;3.60;99.90;;;;;;4983618;28;20197;-74
2022/01/10 03:45:04;;;;;;;28.53;16.33;;;3.60;99.90;;;;;;4990344;28;20206;-75
2022/01/10 03:47:31;;;;;;;29.27;16.10;;;3.80;99.90;;;;;;4993320;28;20218;-75
2022/01/10 03:49:59;;;;;;;29.70;17.90;;;3.70;99.90;;;;;;4968303;28;20228;-75
2022/01/10 03:52:27;;;;;;;30.13;16.60;;;3.70;99.90;;;;;;4994365;28;20213;-74
2022/01/10 03:54:55;;;;;;;26.37;16.27;;;3.60;99.90;;;;;;4972425;28;20203;-74
2022/01/10 03:57:22;;;;;;;28.57;16.63;;;3.50;99.90;;;;;;4990695;28;20207;-74
2022/01/10 03:59:50;;;;;;;28.53;17.30;;;3.60;99.90;;;;;;4974943;28;20224;-74
2022/01/10 04:02:22;;;;;;;39.20;18.30;;;3.60;99.90;;;;;;4992664;28;20211;-74
2022/01/10 04:04:49;;;;;;;32.10;17.80;;;3.60;99.90;;;;;;4975760;28;20204;-74
2022/01/10 04:07:18;;;;;;;31.03;17.67;;;3.60;99.90;;;;;;4977267;28;20218;-75
2022/01/10 04:09:47;;;;;;;31.67;17.40;;;3.60;99.90;;;;;;4967288;28;20217;-75
2022/01/10 04:12:14;;;;;;;30.77;18.73;;;3.60;99.90;;;;;;4959858;28;20201;-75
2022/01/10 04:14:42;;;;;;;32.87;18.40;;;3.60;99.90;;;;;;4970443;28;20550;-74
2022/01/10 04:17:09;;;;;;;29.37;17.87;;;3.60;99.90;;;;;;4969759;28;20666;-74
2022/01/10 04:19:38;;;;;;;31.40;18.17;;;3.50;99.90;;;;;;4994670;28;20222;-75
2022/01/10 04:22:05;;;;;;;31.17;18.43;;;3.50;99.90;;;;;;4978411;28;20192;-74
2022/01/10 04:24:33;;;;;;;33.50;18.30;;;3.40;99.90;;;;;;4978340;28;20207;-74
2022/01/10 04:27:05;;;;;;;32.57;18.73;;;3.50;99.90;;;;;;4968624;28;20216;-74
2022/01/10 04:29:33;;;;;;;32.77;17.77;;;3.50;99.90;;;;;;4980430;28;20226;-74
2022/01/10 04:32:01;;;;;;;28.33;16.80;;;3.50;99.90;;;;;;4996788;28;20663;-74
2022/01/10 04:34:28;;;;;;;32.97;17.90;;;3.60;99.90;;;;;;4986710;28;20660;-75
2022/01/10 04:36:57;;;;;;;28.63;17.27;;;3.50;99.90;;;;;;4990242;28;20195;-75
2022/01/10 04:39:25;;;;;;;31.83;17.83;;;3.50;99.90;;;;;;4986994;28;20226;-74
2022/01/10 04:41:52;;;;;;;30.63;17.13;;;3.50;99.90;;;;;;5002419;28;20202;-75
2022/01/10 04:44:20;;;;;;;31.97;17.13;;;3.60;99.90;;;;;;4994254;28;20202;-74
2022/01/10 04:46:48;;;;;;;27.70;17.50;;;3.50;99.90;;;;;;4977075;28;20219;-75
2022/01/10 04:49:21;;;;;;;29.17;17.90;;;3.50;99.90;;;;;;4977407;28;20217;-74
2022/01/10 04:51:49;;;;;;;32.43;17.60;;;3.50;99.90;;;;;;4990934;28;20214;-75
2022/01/10 04:54:29;;;;;;;28.33;17.60;;;3.60;99.90;;;;;;5007656;28;20192;-75
2022/01/10 04:56:56;;;;;;;26.70;17.23;;;3.70;99.90;;;;;;4991925;28;20203;-74
2022/01/10 04:59:24;;;;;;;27.03;16.97;;;3.70;99.90;;;;;;4978784;28;20223;-74
2022/01/10 05:01:51;;;;;;;29.83;16.67;;;3.70;99.90;;;;;;4977758;28;20197;-75
2022/01/10 05:04:19;;;;;;;28.87;16.67;;;3.60;99.90;;;;;;4987350;28;20207;-75
2022/01/10 05:06:46;;;;;;;27.33;16.50;;;3.50;99.90;;;;;;4969466;28;20235;-75
2022/01/10 05:09:14;;;;;;;27.23;16.70;;;3.40;99.90;;;;;;4975731;28;20223;-75
2022/01/10 05:12:02;;;;;;;27.30;15.43;;;3.50;99.90;;;;;;4972009;28;20209;-74
2022/01/10 05:14:31;;;;;;;27.20;16.30;;;3.50;99.90;;;;;;4975401;28;20210;-74
2022/01/10 05:16:59;;;;;;;29.13;18.90;;;3.50;99.90;;;;;;4973952;28;20214;-75
2022/01/10 05:19:26;;;;;;;30.13;18.60;;;3.50;99.90;;;;;;4976919;28;20220;-74
2022/01/10 05:21:54;;;;;;;26.83;17.23;;;3.60;99.90;;;;;;4977634;28;20200;-75
2022/01/10 05:24:21;;;;;;;28.93;17.53;;;3.70;99.90;;;;;;4977237;28;20223;-74
2022/01/10 05:26:49;;;;;;;29.10;17.87;;;3.60;99.90;;;;;;4977091;28;20230;-74
2022/01/10 05:29:21;;;;;;;31.73;16.90;;;3.50;99.90;;;;;;4989710;28;20216;-75
2022/01/10 05:31:49;;;;;;;32.57;19.43;;;3.60;99.90;;;;;;4976893;28;20219;-75
2022/01/10 05:34:24;;;;;;;28.37;17.97;;;3.50;99.90;;;;;;4964131;28;20203;-75
2022/01/10 05:36:51;;;;;;;34.43;20.40;;;3.60;99.90;;;;;;4981127;28;20206;-75
2022/01/10 05:39:19;;;;;;;36.43;23.50;;;3.50;99.90;;;;;;4995925;28;20234;-75
2022/01/10 05:41:46;;;;;;;38.47;23.73;;;3.40;99.90;;;;;;4995595;28;20688;-74
2022/01/10 05:44:15;;;;;;;40.87;24.97;;;3.40;99.90;;;;;;4980719;28;20202;-75
2022/01/10 05:46:46;;;;;;;36.43;24.03;;;3.50;99.90;;;;;;4998342;28;20251;-75
2022/01/10 05:49:15;;;;;;;34.57;23.07;;;3.50;99.90;;;;;;4957393;28;20234;-75
2022/01/10 05:51:43;;;;;;;36.60;21.43;;;3.50;99.90;;;;;;4970711;28;20219;-75
2022/01/10 05:54:31;;;;;;;29.47;18.93;;;3.40;99.90;;;;;;4976483;28;20213;-75
2022/01/10 05:57:01;;;;;;;30.43;17.83;;;3.30;99.90;;;;;;4983390;28;20198;-75
2022/01/10 05:59:48;;;;;;;29.40;17.50;;;3.20;99.90;;;;;;4985199;28;20228;-77
2022/01/10 06:02:17;;;;;;;26.63;18.13;;;3.20;99.90;;;;;;4971881;28;20197;-75
2022/01/10 06:04:44;;;;;;;31.07;17.43;;;3.20;99.90;;;;;;4991300;28;20203;-75
2022/01/10 06:07:42;;;;;;;31.20;18.70;;;3.20;99.90;;;;;;4980549;28;20215;-75
2022/01/10 06:10:11;;;;;;;29.57;18.17;;;3.30;99.90;;;;;;4976112;28;20227;-75
2022/01/10 06:12:38;;;;;;;35.13;19.03;;;3.20;99.90;;;;;;4975954;28;20570;-75
2022/01/10 06:15:07;;;;;;;35.53;19.73;;;3.10;99.90;;;;;;4980247;28;20203;-75
2022/01/10 06:17:41;;;;;;;33.40;19.70;;;3.20;99.90;;;;;;4980051;28;20206;-75
2022/01/10 06:20:09;;;;;;;32.43;18.50;;;3.30;99.90;;;;;;4974600;28;20219;-75
2022/01/10 06:22:37;;;;;;;29.87;19.40;;;3.40;99.90;;;;;;4976251;28;20206;-75
2022/01/10 06:25:07;;;;;;;29.63;19.27;;;3.50;99.90;;;;;;4988999;28;20211;-74
2022/01/10 06:27:34;;;;;;;31.60;20.07;;;3.50;99.90;;;;;;4986695;28;20566;-74
2022/01/10 06:30:08;;;;;;;27.93;17.60;;;3.60;99.90;;;;;;4979733;28;20220;-74
2022/01/10 06:33:22;;;;;;;28.37;19.10;;;3.60;99.90;;;;;;4975396;28;20201;-74
2022/01/10 06:35:51;;;;;;;28.50;18.83;;;3.50;99.90;;;;;;4972539;28;20288;-74
2022/01/10 06:38:18;;;;;;;30.23;17.93;;;3.30;99.90;;;;;;4969440;28;20556;-75
2022/01/10 06:41:17;;;;;;;29.57;18.53;;;3.20;99.90;;;;;;4973853;28;20228;-74
2022/01/10 06:43:45;;;;;;;29.83;18.00;;;3.10;99.90;;;;;;4974409;28;20678;-74
2022/01/10 06:46:13;;;;;;;26.63;18.20;;;3.10;99.90;;;;;;4974131;28;20194;-75
2022/01/10 06:48:53;;;;;;;29.57;18.53;;;3.20;99.90;;;;;;4974423;28;20222;-75
2022/01/10 06:51:24;;;;;;;36.43;18.83;;;3.30;99.90;;;;;;4982897;28;20192;-74
2022/01/10 06:53:54;;;;;;;31.00;17.97;;;3.40;99.90;;;;;;4979824;28;20663;-74
2022/01/10 06:56:23;;;;;;;33.13;18.63;;;3.30;99.90;;;;;;4984644;28;20194;-74
2022/01/10 06:58:50;;;;;;;32.93;17.37;;;3.40;99.90;;;;;;4969242;28;20227;-74
2022/01/10 07:01:31;;;;;;;34.73;18.50;;;3.30;99.90;;;;;;4973884;28;20209;-74
2022/01/10 07:04:05;;;;;;;29.17;18.10;;;3.20;99.90;;;;;;4980010;28;20201;-74
2022/01/10 07:06:34;;;;;;;28.83;18.03;;;3.20;99.90;;;;;;4971090;28;20204;-74
2022/01/10 07:09:06;;;;;;;32.90;18.93;;;3.10;99.90;;;;;;4977266;28;20230;-74
2022/01/10 07:11:41;;;;;;;29.47;18.47;;;3.20;99.90;;;;;;4976919;28;20228;-75
2022/01/10 07:14:13;;;;;;;34.17;19.40;;;3.20;99.90;;;;;;4976257;28;20701;-74
2022/01/10 07:16:41;;;;;;;35.10;18.37;;;3.30;99.90;;;;;;4973968;28;20228;-74
2022/01/10 07:19:29;;;;;;;28.67;17.93;;;3.30;99.90;;;;;;4973632;28;20220;-74
2022/01/10 07:21:58;;;;;;;37.23;19.27;;;3.30;99.90;;;;;;4967125;28;20228;-74
2022/01/10 07:24:25;;;;;;;36.80;19.00;;;3.20;99.90;;;;;;4975330;28;20205;-74
2022/01/10 07:26:53;;;;;;;28.90;18.40;;;3.10;99.90;;;;;;4958836;28;20217;-74
2022/01/10 07:29:20;;;;;;;29.07;19.63;;;3.00;99.90;;;;;;4992746;28;20227;-74
2022/01/10 07:32:40;;;;;;;32.43;18.13;;;3.10;99.90;;;;;;4983534;28;20666;-75
2022/01/10 07:35:10;;;;;;;28.43;18.17;;;3.00;99.90;;;;;;4993920;28;20254;-75
2022/01/10 07:37:52;;;;;;;35.87;19.57;;;3.00;99.90;;;;;;4977873;28;20570;-75
2022/01/10 07:40:19;;;;;;;32.70;18.93;;;3.00;99.90;;;;;;4978490;28;20577;-76
2022/01/10 07:42:47;;;;;;;31.03;19.93;;;3.00;99.90;;;;;;4997516;28;20211;-75
2022/01/10 07:45:22;;;;;;;28.93;18.17;;;3.10;99.90;;;;;;4997268;28;20200;-75
2022/01/10 07:47:55;;;;;;;31.97;18.07;;;3.10;99.90;;;;;;4976897;28;20220;-75
2022/01/10 07:50:29;;;;;;;30.67;17.87;;;3.20;99.90;;;;;;4985911;28;22032;-75
2022/01/10 07:52:58;;;;;;;28.07;17.70;;;3.30;99.90;;;;;;4977436;28;20213;-75
2022/01/10 07:55:25;;;;;;;29.03;17.60;;;3.30;99.90;;;;;;4986485;28;20683;-75
2022/01/10 07:57:53;;;;;;;27.87;18.17;;;3.40;99.90;;;;;;4979291;28;20206;-75
2022/01/10 08:00:20;;;;;;;30.07;18.30;;;3.40;99.90;;;;;;4977007;28;20215;-76
2022/01/10 08:02:48;;;;;;;23.97;17.63;;;3.60;99.90;;;;;;4992338;28;20602;-75
2022/01/10 08:05:15;;;;;;;29.37;18.90;;;3.50;99.90;;;;;;4978068;28;20200;-75
2022/01/10 08:07:42;;;;;;;29.17;18.43;;;3.50;99.90;;;;;;4995142;28;20196;-75
2022/01/10 08:10:11;;;;;;;26.87;17.70;;;3.60;99.90;;;;;;4974884;28;20228;-76
2022/01/10 08:12:39;;;;;;;29.83;17.67;;;3.70;99.90;;;;;;4971442;28;20211;-75
2022/01/10 08:15:07;;;;;;;29.00;18.10;;;3.70;99.90;;;;;;4971270;28;20217;-74
2022/01/10 08:17:35;;;;;;;28.67;17.50;;;3.80;99.90;;;;;;4976893;28;20223;-75
2022/01/10 08:20:03;;;;;;;27.70;17.90;;;3.70;99.90;;;;;;4976223;28;20230;-76
2022/01/10 08:22:50;;;;;;;30.43;16.77;;;3.50;99.90;;;;;;4993190;28;20681;-74
2022/01/10 08:25:19;;;;;;;33.07;18.87;;;3.40;99.90;;;;;;4973092;28;20208;-74
2022/01/10 08:27:46;;;;;;;30.33;18.27;;;3.50;99.90;;;;;;4974608;28;20646;-75
2022/01/10 08:30:14;;;;;;;30.53;17.20;;;3.50;99.90;;;;;;4974707;28;20232;-75
2022/01/10 08:32:42;;;;;;;29.63;17.17;;;3.60;99.90;;;;;;4988430;28;20196;-77
2022/01/10 08:35:10;;;;;;;31.83;17.53;;;3.50;99.90;;;;;;4990679;28;20207;-74
2022/01/10 08:37:37;;;;;;;33.63;19.37;;;3.50;99.90;;;;;;4975262;28;20643;-74
2022/01/10 08:40:06;;;;;;;31.87;18.83;;;3.40;99.90;;;;;;4971310;28;20227;-75
2022/01/10 08:42:35;;;;;;;34.10;18.53;;;3.40;99.90;;;;;;4988520;28;20224;-75
2022/01/10 08:45:08;;;;;;;33.07;19.10;;;3.40;99.90;;;;;;4974082;28;20204;-75
2022/01/10 08:48:01;;;;;;;32.87;18.90;;;3.40;99.90;;;;;;4974823;28;20212;-74
2022/01/10 08:50:28;;;;;;;40.30;19.10;;;3.30;99.90;;;;;;4975285;28;20232;-74
2022/01/10 08:52:56;;;;;;;31.37;19.03;;;3.30;99.90;;;;;;4993786;28;20240;-75
2022/01/10 08:55:23;;;;;;;42.27;20.60;;;3.40;99.90;;;;;;4993332;28;20201;-74
2022/01/10 08:57:58;;;;;;;36.67;19.33;;;3.40;99.90;;;;;;4975837;28;20711;-74
2022/01/10 09:00:27;;;;;;;35.43;20.30;;;3.50;99.90;;;;;;4973690;28;20713;-74
2022/01/10 09:02:55;;;;;;;37.40;20.97;;;3.50;99.90;;;;;;4975166;28;20211;-74
2022/01/10 09:05:33;;;;;;;34.70;20.53;;;3.50;99.90;;;;;;4975099;28;20210;-74
2022/01/10 09:08:02;;;;;;;34.23;21.13;;;3.60;99.90;;;;;;4987722;28;20203;-76
2022/01/10 09:10:30;;;;;;;34.57;21.17;;;3.70;99.90;;;;;;4986820;28;20224;-76
2022/01/10 09:12:59;;;;;;;33.93;21.27;;;3.70;99.90;;;;;;4984406;28;20231;-75
2022/01/10 09:15:27;;;;;;;36.20;21.13;;;3.80;99.90;;;;;;4973972;28;20208;-75
2022/01/10 09:17:55;;;;;;;40.20;20.63;;;3.80;99.90;;;;;;4983785;28;20204;-74
2022/01/10 09:20:23;;;;;;;33.23;19.17;;;3.90;99.90;;;;;;4979325;28;20243;-74
2022/01/10 09:22:51;;;;;;;30.80;19.77;;;3.90;99.90;;;;;;4975177;28;20207;-75
2022/01/10 09:25:24;;;;;;;33.50;18.93;;;4.10;99.90;;;;;;4979873;28;20216;-75
2022/01/10 09:27:51;;;;;;;32.93;19.67;;;4.10;99.90;;;;;;4969740;28;20206;-74
2022/01/10 09:30:21;;;;;;;35.33;19.43;;;4.30;99.90;;;;;;4975410;28;20239;-75
2022/01/10 09:32:48;;;;;;;35.77;18.80;;;4.40;99.90;;;;;;4964562;28;20222;-74
2022/01/10 09:35:16;;;;;;;32.33;19.90;;;4.30;99.90;;;;;;4964104;28;20201;-74
2022/01/10 09:37:43;;;;;;;31.23;20.10;;;4.50;99.90;;;;;;4973832;28;20204;-75
2022/01/10 09:40:11;;;;;;;29.57;18.63;;;4.60;99.90;;;;;;4979452;28;20220;-75
2022/01/10 09:42:39;;;;;;;30.97;19.60;;;4.60;99.90;;;;;;4976328;28;20216;-75
2022/01/10 09:45:07;;;;;;;28.90;19.77;;;4.70;99.90;;;;;;4986940;28;20215;-75
2022/01/10 09:47:37;;;;;;;27.83;19.33;;;4.70;99.90;;;;;;4975067;28;20208;-75
2022/01/10 09:50:06;;;;;;;37.13;20.20;;;5.00;99.90;;;;;;4993665;28;20228;-75
2022/01/10 09:52:34;;;;;;;36.33;20.70;;;5.10;99.90;;;;;;4975337;28;20215;-75
2022/01/10 09:55:01;;;;;;;33.33;20.27;;;5.00;99.90;;;;;;4988149;28;20202;-75
2022/01/10 09:57:29;;;;;;;36.53;19.83;;;5.00;99.90;;;;;;4984794;28;20205;-76
2022/01/10 09:59:56;;;;;;;34.50;19.23;;;4.90;99.90;;;;;;4975899;28;20220;-75
2022/01/10 10:02:30;;;;;;;35.33;19.90;;;4.80;99.90;;;;;;4963465;28;20193;-76
2022/01/10 10:05:05;;;;;;;35.93;18.70;;;4.70;99.90;;;;;;4969403;28;20548;-75
2022/01/10 10:07:32;;;;;;;39.77;20.00;;;4.70;99.90;;;;;;4973675;28;20209;-75
2022/01/10 10:10:03;;;;;;;33.03;19.73;;;4.80;99.90;;;;;;4975466;28;20228;-75
2022/01/10 10:12:30;;;;;;;36.40;20.40;;;4.90;99.90;;;;;;4976051;28;20214;-75
2022/01/10 10:15:00;;;;;;;33.23;19.50;;;5.00;99.90;;;;;;4994487;28;20202;-75
2022/01/10 10:17:29;;;;;;;33.27;21.13;;;5.00;99.90;;;;;;4992292;28;20199;-75
2022/01/10 10:19:58;;;;;;;37.37;22.47;;;4.90;99.90;;;;;;4972027;28;20235;-76
2022/01/10 10:22:27;;;;;;;36.37;21.53;;;5.00;99.90;;;;;;4986523;28;20283;-75
2022/01/10 10:24:54;;;;;;;39.77;22.43;;;5.20;99.90;;;;;;4971945;28;20214;-75
2022/01/10 10:27:22;;;;;;;34.43;21.90;;;5.10;99.90;;;;;;4973075;28;20204;-75
2022/01/10 10:29:50;;;;;;;38.80;22.73;;;5.10;99.90;;;;;;4990883;28;20227;-76
2022/01/10 10:32:17;;;;;;;35.13;22.27;;;5.40;99.90;;;;;;4972578;28;20530;-75
2022/01/10 10:34:44;;;;;;;36.27;20.90;;;5.70;99.90;;;;;;4973154;28;20205;-75
2022/01/10 10:37:14;;;;;;;39.23;21.37;;;5.70;99.90;;;;;;4971992;28;20702;-76
2022/01/10 10:39:44;;;;;;;33.27;20.37;;;5.80;99.90;;;;;;4972207;28;20239;-75
2022/01/10 10:42:13;;;;;;;35.30;20.93;;;6.00;99.90;;;;;;4974058;28;20209;-75
2022/01/10 10:44:47;;;;;;;34.87;17.93;;;5.90;99.90;;;;;;4971988;28;20206;-74
2022/01/10 10:47:17;;;;;;;33.23;17.43;;;6.00;99.90;;;;;;4987756;28;20562;-74
2022/01/10 10:49:47;;;;;;;33.03;18.23;;;6.20;99.90;;;;;;4988780;28;20236;-75
2022/01/10 10:52:15;;;;;;;29.77;17.03;;;6.20;99.90;;;;;;4991852;28;20561;-74
2022/01/10 10:54:44;;;;;;;33.83;18.73;;;6.60;99.90;;;;;;4972345;28;20203;-74
2022/01/10 10:57:14;;;;;;;27.17;17.37;;;6.50;99.90;;;;;;4993407;28;20198;-74
2022/01/10 10:59:43;;;;;;;29.70;16.20;;;7.30;99.90;;;;;;4975573;28;20578;-75
2022/01/10 11:02:12;;;;;;;26.40;16.27;;;7.30;99.90;;;;;;4973703;28;20207;-75
2022/01/10 11:04:41;;;;;;;29.80;15.70;;;7.70;99.90;;;;;;4975628;28;20211;-74
2022/01/10 11:07:10;;;;;;;31.93;17.27;;;8.40;99.90;;;;;;4968956;28;20219;-76
2022/01/10 11:09:37;;;;;;;29.77;17.93;;;8.20;99.90;;;;;;4970398;28;20238;-74
2022/01/10 11:12:07;;;;;;;31.73;18.20;;;8.80;99.90;;;;;;4982581;28;20204;-76
2022/01/10 11:14:41;;;;;;;29.60;18.37;;;9.00;99.90;;;;;;4985625;28;20211;-75
2022/01/10 11:17:34;;;;;;;36.20;18.93;;;9.50;99.90;;;;;;4987944;28;20223;-75
2022/01/10 11:20:10;;;;;;;32.17;17.57;;;10.40;99.90;;;;;;4974239;28;20224;-75
2022/01/10 11:22:42;;;;;;;31.80;17.47;;;10.10;99.90;;;;;;4967932;28;20215;-75
2022/01/10 11:25:27;;;;;;;29.50;17.63;;;10.80;99.90;;;;;;4971273;28;20209;-75
2022/01/10 11:28:12;;;;;;;28.57;16.70;;;11.30;99.90;;;;;;4967305;28;20210;-74
2022/01/10 11:30:42;;;;;;;25.50;15.33;;;11.70;98.60;;;;;;4970707;28;20703;-74
2022/01/10 11:33:12;;;;;;;27.90;16.63;;;11.50;98.00;;;;;;4970320;28;20201;-74
2022/01/10 11:35:50;;;;;;;29.17;16.33;;;11.80;98.20;;;;;;4969114;28;20196;-75
2022/01/10 11:38:28;;;;;;;26.63;15.40;;;12.00;98.00;;;;;;4960952;28;20209;-75
2022/01/10 11:40:59;;;;;;;21.63;14.23;;;11.90;97.60;;;;;;4967976;28;20654;-78
2022/01/10 11:43:41;;;;;;;22.57;15.93;;;12.00;96.80;;;;;;4964864;28;20663;-75
2022/01/10 11:46:22;;;;;;;24.30;15.57;;;11.70;97.70;;;;;;4968053;28;20598;-74
2022/01/10 11:48:54;;;;;;;24.33;15.10;;;12.00;97.00;;;;;;4974031;28;20228;-73
2022/01/10 11:51:24;;;;;;;26.43;15.10;;;12.10;96.40;;;;;;4975733;28;20220;-74
2022/01/10 11:53:53;;;;;;;22.57;14.50;;;11.90;97.80;;;;;;4989938;28;20189;-74
2022/01/10 11:56:24;;;;;;;24.50;14.50;;;12.80;95.50;;;;;;4978150;28;20207;-74
2022/01/10 11:59:26;;;;;;;23.03;13.00;;;12.00;94.90;;;;;;4977984;28;20212;-74
2022/01/10 12:01:59;;;;;;;27.37;14.00;;;11.90;96.90;;;;;;4996176;28;20244;-74
2022/01/10 12:04:37;;;;;;;20.90;13.83;;;13.10;94.70;;;;;;4978526;28;20650;-74
2022/01/10 12:07:06;;;;;;;22.57;13.63;;;12.90;94.40;;;;;;4996078;28;20199;-74
2022/01/10 12:09:34;;;;;;;23.13;14.25;;;13.90;93.00;;;;;;4977980;28;20212;-74
2022/01/10 12:12:03;;;;;;;25.92;12.95;;;13.50;92.20;;;;;;4995863;28;20192;-74
2022/01/10 12:14:32;;;;;;;19.57;12.40;;;12.40;92.90;;;;;;4983952;28;20223;-75
2022/01/10 12:17:01;;;;;;;23.25;11.80;;;13.30;92.60;;;;;;5000017;28;20192;-74
2022/01/10 12:19:29;;;;;;;17.10;10.77;;;12.80;91.90;;;;;;5001722;28;20691;-74
2022/01/10 12:21:56;;;;;;;23.50;10.75;;;13.50;92.70;;;;;;4995809;28;20191;-74
2022/01/10 12:24:24;;;;;;;19.85;10.30;;;12.50;92.00;;;;;;4984546;28;20680;-74
2022/01/10 12:26:52;;;;;;;18.17;10.05;;;14.10;90.60;;;;;;5012956;28;20214;-74
2022/01/10 12:29:19;;;;;;;19.73;8.95;;;14.90;87.20;;;;;;4978074;28;20212;-74
2022/01/10 12:31:48;;;;;;;19.13;8.95;;;13.90;83.30;;;;;;4978238;28;20243;-74
2022/01/10 12:34:16;;;;;;;19.33;9.48;;;12.90;88.30;;;;;;4977770;28;20540;-74
2022/01/10 12:36:46;;;;;;;17.48;9.55;;;12.90;89.70;;;;;;4996087;28;20200;-74
2022/01/10 12:41:39;;;;;;;16.58;9.70;;;12.60;92.80;;;;;;5116427;23;20234;-76
2022/01/10 12:44:07;;;;;;;18.90;8.18;;;13.80;90.00;;;;;;5008778;28;20199;-76
2022/01/10 12:46:34;;;;;;;16.92;8.30;;;13.40;89.80;;;;;;5017355;28;20203;-76
2022/01/10 12:49:05;;;;;;;16.27;7.95;;;14.50;83.50;;;;;;5004088;28;20199;-76
2022/01/10 12:51:38;;;;;;;15.60;9.13;;;15.10;84.00;;;;;;5017099;28;20215;-76
2022/01/10 12:54:10;;;;;;;17.92;8.77;;;15.60;77.20;;;;;;5016441;28;20198;-76
2022/01/10 12:56:38;;;;;;;18.35;8.82;;;15.40;79.80;;;;;;4996298;28;20219;-76
2022/01/10 12:59:05;;;;;;;17.42;8.68;;;14.00;79.70;;;;;;4997779;28;20219;-76
2022/01/10 13:01:33;;;;;;;14.25;7.57;;;14.00;79.40;;;;;;5009588;28;20215;-76